createdAt,value
2023-05-10T00:00:05.993Z,43.53
2023-05-10T00:01:06.031Z,43.53
2023-05-10T00:02:06.070Z,43.49
2023-05-10T00:03:06.168Z,43.52
2023-05-10T00:04:06.090Z,43.48
2023-05-10T00:05:06.080Z,43.59
2023-05-10T00:06:06.065Z,43.56
2023-05-10T00:07:06.068Z,43.58
2023-05-10T00:08:06.070Z,43.63
2023-05-10T00:09:06.104Z,43.66
2023-05-10T00:10:06.112Z,43.63
2023-05-10T00:11:06.099Z,43.65
2023-05-10T00:12:06.137Z,43.65
2023-05-10T00:13:06.161Z,43.67
2023-05-10T00:14:06.135Z,43.68
2023-05-10T00:15:06.167Z,43.74
2023-05-10T00:16:06.176Z,43.73
2023-05-10T00:17:06.181Z,43.75
2023-05-10T00:18:06.245Z,43.71
2023-05-10T00:19:06.240Z,43.78
2023-05-10T00:20:06.212Z,43.81
2023-05-10T00:21:06.248Z,43.88
2023-05-10T00:22:06.277Z,43.90
2023-05-10T00:23:06.258Z,43.95
2023-05-10T00:24:06.282Z,43.96
2023-05-10T00:25:06.305Z,43.99
2023-05-10T00:26:06.304Z,43.98
2023-05-10T00:27:06.361Z,43.95
2023-05-10T00:28:06.366Z,43.97
2023-05-10T00:29:06.361Z,43.98
2023-05-10T00:30:06.374Z,43.99
2023-05-10T00:31:06.397Z,44.01
2023-05-10T00:32:06.430Z,44.07
2023-05-10T00:33:06.452Z,44.10
2023-05-10T00:34:06.425Z,44.07
2023-05-10T00:35:06.470Z,44.08
2023-05-10T00:36:06.490Z,44.06
2023-05-10T00:37:06.481Z,44.04
2023-05-10T00:38:06.523Z,44.08
2023-05-10T00:39:06.540Z,44.12
2023-05-10T00:40:06.548Z,44.14
2023-05-10T00:41:06.587Z,44.11
2023-05-10T00:42:06.557Z,44.10
2023-05-10T00:43:06.594Z,44.09
2023-05-10T00:44:06.587Z,44.08
2023-05-10T00:45:06.604Z,44.15
2023-05-10T00:46:06.693Z,44.17
2023-05-10T00:47:06.645Z,44.16
2023-05-10T00:48:06.751Z,44.16
2023-05-10T00:49:06.688Z,44.13
2023-05-10T00:50:06.705Z,44.15
2023-05-10T00:51:06.710Z,44.17
2023-05-10T00:52:06.752Z,44.21
2023-05-10T00:53:06.784Z,44.21
2023-05-10T00:54:06.832Z,44.23
2023-05-10T00:55:06.800Z,44.29
2023-05-10T00:56:06.869Z,44.29
2023-05-10T00:57:06.867Z,44.27
2023-05-10T00:58:06.900Z,44.25
2023-05-10T00:59:06.945Z,44.25
2023-05-10T01:00:06.982Z,44.27
2023-05-10T01:01:07.020Z,44.24
2023-05-10T01:02:07.011Z,44.24
2023-05-10T01:03:07.129Z,44.20
2023-05-10T01:04:07.044Z,44.25
2023-05-10T01:05:07.119Z,44.34
2023-05-10T01:06:07.125Z,44.34
2023-05-10T01:07:07.158Z,44.33
2023-05-10T01:08:07.158Z,44.33
2023-05-10T01:09:07.153Z,44.31
2023-05-10T01:10:07.214Z,44.29
2023-05-10T01:11:07.238Z,44.26
2023-05-10T01:12:07.304Z,44.31
2023-05-10T01:13:07.294Z,44.31
2023-05-10T01:14:07.351Z,44.31
2023-05-10T01:15:07.361Z,44.32
2023-05-10T01:16:07.503Z,44.35
2023-05-10T01:17:07.399Z,44.30
2023-05-10T01:18:07.439Z,44.30
2023-05-10T01:19:07.469Z,44.34
2023-05-10T01:20:07.476Z,44.31
2023-05-10T01:21:07.538Z,44.30
2023-05-10T01:22:07.564Z,44.33
2023-05-10T01:23:07.587Z,44.31
2023-05-10T01:24:07.621Z,44.30
2023-05-10T01:25:07.640Z,44.31
2023-05-10T01:26:07.663Z,44.31
2023-05-10T01:27:07.672Z,44.29
2023-05-10T01:28:07.693Z,44.33
2023-05-10T01:29:07.760Z,44.33
2023-05-10T01:30:15.650Z,44.30
2023-05-10T01:31:08.818Z,44.36
2023-05-10T01:32:07.760Z,44.32
2023-05-10T01:33:07.780Z,44.31
2023-05-10T01:34:07.721Z,44.31
2023-05-10T01:35:07.752Z,44.34
2023-05-10T01:36:07.738Z,44.32
2023-05-10T01:37:07.710Z,44.33
2023-05-10T01:38:07.720Z,44.38
2023-05-10T01:39:07.709Z,44.37
2023-05-10T01:40:07.677Z,44.40
2023-05-10T01:41:07.661Z,44.39
2023-05-10T01:42:07.645Z,44.43
2023-05-10T01:43:07.688Z,44.44
2023-05-10T01:44:07.666Z,44.41
2023-05-10T01:45:07.632Z,44.40
2023-05-10T01:46:07.610Z,44.43
2023-05-10T01:47:07.648Z,44.39
2023-05-10T01:48:07.793Z,44.42
2023-05-10T01:49:07.666Z,44.40
2023-05-10T01:50:07.943Z,44.41
2023-05-10T01:51:07.727Z,44.41
2023-05-10T01:52:07.735Z,44.42
2023-05-10T01:53:07.791Z,44.39
2023-05-10T01:54:07.805Z,44.37
2023-05-10T01:55:07.830Z,44.42
2023-05-10T01:56:07.899Z,44.41
2023-05-10T01:57:07.900Z,44.45
2023-05-10T01:58:07.934Z,44.44
2023-05-10T01:59:07.973Z,44.44
2023-05-10T02:00:07.999Z,44.41
2023-05-10T02:01:08.084Z,44.47
2023-05-10T02:02:08.085Z,44.44
2023-05-10T02:03:08.218Z,44.46
2023-05-10T02:04:08.130Z,44.46
2023-05-10T02:05:08.162Z,44.44
2023-05-10T02:06:08.183Z,44.47
2023-05-10T02:07:08.192Z,44.49
2023-05-10T02:08:09.140Z,44.43
2023-05-10T02:09:08.267Z,44.47
2023-05-10T02:10:08.301Z,44.44
2023-05-10T02:11:08.317Z,44.45
2023-05-10T02:12:08.360Z,44.47
2023-05-10T02:13:08.477Z,44.48
2023-05-10T02:14:08.454Z,44.51
2023-05-10T02:15:08.454Z,44.50
2023-05-10T02:16:08.526Z,44.54
2023-05-10T02:17:08.513Z,44.52
2023-05-10T02:18:08.564Z,44.51
2023-05-10T02:19:08.610Z,44.57
2023-05-10T02:20:08.599Z,44.57
2023-05-10T02:21:08.629Z,44.56
2023-05-10T02:22:08.657Z,44.55
2023-05-10T02:23:08.739Z,44.52
2023-05-10T02:24:08.741Z,44.53
2023-05-10T02:25:08.752Z,44.54
2023-05-10T02:26:08.847Z,44.56
2023-05-10T02:27:08.801Z,44.57
2023-05-10T02:28:08.901Z,44.54
2023-05-10T02:29:08.910Z,44.54
2023-05-10T02:30:08.882Z,44.58
2023-05-10T02:31:08.951Z,44.57
2023-05-10T02:32:09.064Z,44.58
2023-05-10T02:33:09.032Z,44.55
2023-05-10T02:34:09.014Z,44.54
2023-05-10T02:35:09.070Z,44.54
2023-05-10T02:36:09.069Z,44.56
2023-05-10T02:37:09.117Z,44.58
2023-05-10T02:38:09.161Z,44.56
2023-05-10T02:39:09.180Z,44.59
2023-05-10T02:40:09.191Z,44.61
2023-05-10T02:41:09.238Z,44.62
2023-05-10T02:42:09.280Z,44.61
2023-05-10T02:43:09.297Z,44.63
2023-05-10T02:44:09.344Z,44.61
2023-05-10T02:45:09.356Z,44.61
2023-05-10T02:46:09.458Z,44.62
2023-05-10T02:47:09.415Z,44.61
2023-05-10T02:48:09.544Z,44.62
2023-05-10T02:49:10.168Z,44.58
2023-05-10T02:50:09.484Z,44.59
2023-05-10T02:51:09.504Z,44.60
2023-05-10T02:52:09.550Z,44.61
2023-05-10T02:53:09.568Z,44.59
2023-05-10T02:54:09.565Z,44.64
2023-05-10T02:55:09.602Z,44.64
2023-05-10T02:56:09.677Z,44.65
2023-05-10T02:57:09.667Z,44.62
2023-05-10T02:58:09.720Z,44.63
2023-05-10T02:59:09.731Z,44.67
2023-05-10T03:00:09.766Z,44.64
2023-05-10T03:01:09.787Z,44.63
2023-05-10T03:02:09.815Z,44.63
2023-05-10T03:03:09.963Z,44.59
2023-05-10T03:04:09.889Z,44.64
2023-05-10T03:05:09.927Z,44.64
2023-05-10T03:06:09.955Z,44.62
2023-05-10T03:07:10.304Z,44.64
2023-05-10T03:08:10.022Z,44.64
2023-05-10T03:09:10.033Z,44.69
2023-05-10T03:10:10.078Z,44.68
2023-05-10T03:11:10.108Z,44.67
2023-05-10T03:12:10.156Z,44.69
2023-05-10T03:13:10.211Z,44.68
2023-05-10T03:14:10.193Z,44.70
2023-05-10T03:15:10.209Z,44.71
2023-05-10T03:16:10.401Z,44.68
2023-05-10T03:17:10.320Z,44.72
2023-05-10T03:18:10.374Z,44.67
2023-05-10T03:19:10.352Z,44.72
2023-05-10T03:20:10.412Z,44.74
2023-05-10T03:21:10.449Z,44.72
2023-05-10T03:22:10.498Z,44.72
2023-05-10T03:23:10.520Z,44.73
2023-05-10T03:24:10.527Z,44.72
2023-05-10T03:25:10.609Z,44.76
2023-05-10T03:26:10.608Z,44.75
2023-05-10T03:27:10.668Z,44.76
2023-05-10T03:28:10.665Z,44.75
2023-05-10T03:29:10.700Z,44.74
2023-05-10T03:30:10.732Z,44.75
2023-05-10T03:31:10.853Z,44.76
2023-05-10T03:32:10.795Z,44.78
2023-05-10T03:33:10.827Z,44.79
2023-05-10T03:34:10.877Z,44.79
2023-05-10T03:35:10.977Z,44.81
2023-05-10T03:36:10.936Z,44.86
2023-05-10T03:37:10.989Z,44.85
2023-05-10T03:38:11.025Z,44.86
2023-05-10T03:39:11.064Z,44.86
2023-05-10T03:40:11.073Z,44.89
2023-05-10T03:41:12.069Z,44.91
2023-05-10T03:42:11.160Z,44.97
2023-05-10T03:43:11.199Z,45.00
2023-05-10T03:44:11.168Z,45.00
2023-05-10T03:45:11.206Z,45.05
2023-05-10T03:46:11.278Z,45.06
2023-05-10T03:47:11.265Z,45.02
2023-05-10T03:48:11.328Z,45.07
2023-05-10T03:49:11.335Z,45.08
2023-05-10T03:50:11.386Z,45.09
2023-05-10T03:51:11.451Z,45.12
2023-05-10T03:52:11.437Z,45.12
2023-05-10T03:53:11.472Z,45.10
2023-05-10T03:54:11.483Z,45.07
2023-05-10T03:55:11.523Z,45.04
2023-05-10T03:56:11.530Z,45.08
2023-05-10T03:57:11.565Z,45.10
2023-05-10T03:58:11.647Z,45.06
2023-05-10T03:59:11.656Z,45.03
2023-05-10T04:00:11.700Z,45.03
2023-05-10T04:01:11.712Z,45.00
2023-05-10T04:02:11.735Z,45.00
2023-05-10T04:03:11.842Z,45.03
2023-05-10T04:04:11.825Z,44.95
2023-05-10T04:05:11.788Z,44.95
2023-05-10T04:06:11.843Z,44.94
2023-05-10T04:07:11.855Z,44.93
2023-05-10T04:08:11.921Z,44.88
2023-05-10T04:09:11.877Z,44.88
2023-05-10T04:10:11.959Z,44.84
2023-05-10T04:11:12.030Z,44.83
2023-05-10T04:12:12.005Z,44.78
2023-05-10T04:13:12.027Z,44.76
2023-05-10T04:14:12.010Z,44.81
2023-05-10T04:15:12.076Z,44.78
2023-05-10T04:16:12.079Z,44.79
2023-05-10T04:17:12.184Z,44.79
2023-05-10T04:18:12.163Z,44.84
2023-05-10T04:19:12.198Z,44.81
2023-05-10T04:20:12.215Z,44.82
2023-05-10T04:21:12.215Z,44.82
2023-05-10T04:22:12.263Z,44.81
2023-05-10T04:23:12.287Z,44.76
2023-05-10T04:24:13.472Z,44.82
2023-05-10T04:25:12.357Z,44.75
2023-05-10T04:26:12.377Z,44.78
2023-05-10T04:27:12.386Z,44.77
2023-05-10T04:28:12.468Z,44.75
2023-05-10T04:29:12.479Z,44.74
2023-05-10T04:30:12.535Z,44.73
2023-05-10T04:31:12.669Z,44.73
2023-05-10T04:32:12.533Z,44.70
2023-05-10T04:33:12.594Z,44.71
2023-05-10T04:34:12.641Z,44.66
2023-05-10T04:35:12.639Z,44.72
2023-05-10T04:36:12.671Z,44.68
2023-05-10T04:37:12.694Z,44.67
2023-05-10T04:38:12.767Z,44.66
2023-05-10T04:39:12.803Z,44.62
2023-05-10T04:40:12.851Z,44.65
2023-05-10T04:41:12.847Z,44.64
2023-05-10T04:42:12.926Z,44.66
2023-05-10T04:43:12.918Z,44.65
2023-05-10T04:44:12.967Z,44.64
2023-05-10T04:45:12.993Z,44.65
2023-05-10T04:46:13.069Z,44.66
2023-05-10T04:47:13.074Z,44.59
2023-05-10T04:48:13.116Z,44.67
2023-05-10T04:49:13.160Z,44.66
2023-05-10T04:50:13.167Z,44.68
2023-05-10T04:51:13.218Z,44.72
2023-05-10T04:52:13.268Z,44.73
2023-05-10T04:53:15.268Z,44.73
2023-05-10T04:54:13.459Z,44.80
2023-05-10T04:55:13.480Z,44.78
2023-05-10T04:56:13.603Z,44.79
2023-05-10T04:57:13.626Z,44.75
2023-05-10T04:58:13.667Z,44.76
2023-05-10T04:59:13.717Z,44.72
2023-05-10T05:01:40.346Z,44.89
2023-05-10T05:02:32.742Z,44.85
2023-05-10T05:03:32.722Z,44.87
2023-05-10T05:04:32.632Z,44.90
2023-05-10T05:05:32.606Z,44.87
2023-05-10T05:06:32.605Z,44.94
2023-05-10T05:07:32.606Z,44.97
2023-05-10T05:08:32.584Z,45.03
2023-05-10T05:09:32.553Z,45.07
2023-05-10T05:10:32.568Z,45.15
2023-05-10T05:11:32.572Z,45.31
2023-05-10T05:12:32.584Z,45.46
2023-05-10T05:13:32.586Z,45.67
2023-05-10T05:14:32.652Z,45.89
2023-05-10T05:15:32.660Z,46.16
2023-05-10T05:16:32.685Z,46.28
2023-05-10T05:17:32.683Z,46.38
2023-05-10T05:18:32.678Z,46.43
2023-05-10T05:19:32.648Z,46.62
2023-05-10T05:20:32.679Z,46.73
2023-05-10T05:21:32.742Z,46.65
2023-05-10T05:22:32.744Z,46.61
2023-05-10T05:23:32.763Z,46.90
2023-05-10T05:24:32.769Z,46.87
2023-05-10T05:25:32.796Z,46.95
2023-05-10T05:26:32.776Z,47.05
2023-05-10T05:27:32.787Z,47.10
2023-05-10T05:28:32.784Z,47.05
2023-05-10T05:29:32.753Z,46.90
2023-05-10T05:30:32.819Z,46.98
2023-05-10T05:31:32.845Z,47.01
2023-05-10T05:32:32.872Z,46.68
2023-05-10T05:33:32.856Z,46.69
2023-05-10T05:34:32.839Z,46.79
2023-05-10T05:35:32.801Z,46.99
2023-05-10T05:36:32.808Z,47.41
2023-05-10T05:37:32.860Z,47.85
2023-05-10T05:38:33.364Z,47.97
2023-05-10T05:39:32.878Z,48.43
2023-05-10T05:40:32.927Z,48.60
2023-05-10T05:41:32.988Z,48.85
2023-05-10T05:42:33.057Z,48.55
2023-05-10T05:43:33.468Z,48.64
2023-05-10T05:44:33.128Z,48.82
2023-05-10T05:45:33.151Z,48.77
2023-05-10T05:46:40.919Z,48.64
2023-05-10T05:47:33.250Z,48.50
2023-05-10T05:48:33.449Z,48.54
2023-05-10T05:49:33.182Z,48.86
2023-05-10T05:50:33.194Z,48.82
2023-05-10T05:51:33.177Z,48.85
2023-05-10T05:52:33.185Z,48.54
2023-05-10T05:53:33.126Z,47.91
2023-05-10T05:54:33.388Z,47.75
2023-05-10T05:55:33.116Z,47.38
2023-05-10T05:56:33.121Z,47.14
2023-05-10T05:57:33.316Z,46.88
2023-05-10T05:58:33.429Z,46.64
2023-05-10T05:59:33.407Z,47.10
2023-05-10T06:00:33.118Z,47.78
2023-05-10T06:01:33.150Z,47.64
2023-05-10T06:02:33.187Z,47.67
2023-05-10T06:03:33.162Z,47.77
2023-05-10T06:04:33.469Z,47.88
2023-05-10T06:05:33.118Z,48.05
2023-05-10T06:06:33.157Z,48.27
2023-05-10T06:07:33.241Z,48.54
2023-05-10T06:08:33.205Z,48.54
2023-05-10T06:09:33.206Z,48.54
2023-05-10T06:10:33.194Z,48.44
2023-05-10T06:11:33.275Z,48.20
2023-05-10T06:12:33.286Z,48.12
2023-05-10T06:13:33.712Z,47.92
2023-05-10T06:14:33.884Z,48.04
2023-05-10T06:15:33.462Z,48.08
2023-05-10T06:16:33.558Z,48.25
2023-05-10T06:17:33.650Z,48.25
2023-05-10T06:18:33.648Z,48.25
2023-05-10T06:19:34.409Z,48.23
2023-05-10T06:20:33.766Z,48.30
2023-05-10T06:21:33.839Z,48.36
2023-05-10T06:22:33.872Z,48.50
2023-05-10T06:23:33.968Z,48.49
2023-05-10T06:24:34.017Z,48.37
2023-05-10T06:25:34.026Z,48.42
2023-05-10T06:26:34.148Z,48.49
2023-05-10T06:27:34.297Z,48.50
2023-05-10T06:28:34.238Z,48.55
2023-05-10T06:29:34.340Z,48.82
2023-05-10T06:30:34.377Z,48.85
2023-05-10T06:31:34.434Z,49.01
2023-05-10T06:32:34.509Z,49.30
2023-05-10T06:33:34.569Z,49.35
2023-05-10T06:34:34.628Z,49.34
2023-05-10T06:35:34.628Z,49.40
2023-05-10T06:36:34.645Z,49.40
2023-05-10T06:37:34.640Z,49.27
2023-05-10T06:38:34.722Z,49.24
2023-05-10T06:39:34.834Z,49.43
2023-05-10T06:40:34.875Z,49.06
2023-05-10T06:41:34.889Z,49.17
2023-05-10T06:42:34.978Z,49.39
2023-05-10T06:43:34.979Z,49.40
2023-05-10T06:44:35.387Z,49.48
2023-05-10T06:45:35.022Z,49.62
2023-05-10T06:47:54.045Z,49.73
2023-05-10T06:48:53.981Z,49.58
2023-05-10T06:49:53.942Z,49.34
2023-05-10T06:50:53.952Z,49.22
2023-05-10T06:51:53.902Z,49.15
2023-05-10T06:52:53.922Z,49.06
2023-05-10T06:53:53.904Z,48.99
2023-05-10T06:54:53.911Z,49.14
2023-05-10T06:55:53.861Z,49.36
2023-05-10T06:56:53.894Z,49.59
2023-05-10T06:57:53.890Z,49.70
2023-05-10T06:58:53.902Z,49.70
2023-05-10T06:59:53.844Z,49.97
2023-05-10T07:00:53.981Z,50.03
2023-05-10T07:01:53.889Z,49.99
2023-05-10T07:02:53.874Z,49.76
2023-05-10T07:03:53.826Z,49.71
2023-05-10T07:04:53.881Z,49.86
2023-05-10T07:05:53.805Z,49.85
2023-05-10T07:06:53.799Z,49.88
2023-05-10T07:07:53.849Z,50.12
2023-05-10T07:08:53.803Z,50.16
2023-05-10T07:09:54.171Z,50.14
2023-05-10T07:10:53.784Z,50.37
2023-05-10T07:11:53.753Z,50.43
2023-05-10T07:12:53.851Z,50.32
2023-05-10T07:13:53.729Z,50.24
2023-05-10T07:14:53.769Z,50.21
2023-05-10T07:15:53.789Z,50.09
2023-05-10T07:16:53.751Z,49.84
2023-05-10T07:17:53.813Z,49.72
2023-05-10T07:18:53.726Z,49.51
2023-05-10T07:19:53.735Z,49.35
2023-05-10T07:20:53.799Z,49.20
2023-05-10T07:21:53.681Z,48.93
2023-05-10T07:22:53.704Z,48.55
2023-05-10T07:23:53.696Z,47.87
2023-05-10T07:24:53.712Z,47.88
2023-05-10T07:25:53.713Z,47.78
2023-05-10T07:26:53.680Z,47.85
2023-05-10T07:27:53.628Z,47.68
2023-05-10T07:28:53.655Z,47.45
2023-05-10T07:29:53.705Z,47.46
2023-05-10T07:30:53.665Z,47.31
2023-05-10T07:31:54.481Z,47.01
2023-05-10T07:32:53.808Z,47.49
2023-05-10T07:33:53.820Z,47.39
2023-05-10T07:34:53.874Z,47.72
2023-05-10T07:35:53.893Z,47.59
2023-05-10T07:36:53.965Z,47.08
2023-05-10T07:37:54.000Z,47.02
2023-05-10T07:38:54.034Z,46.84
2023-05-10T07:39:54.121Z,47.73
2023-05-10T07:40:54.117Z,47.31
2023-05-10T07:41:54.155Z,47.20
2023-05-10T07:42:54.208Z,47.06
2023-05-10T07:43:54.249Z,46.84
2023-05-10T07:44:54.339Z,47.04
2023-05-10T07:45:56.105Z,46.75
2023-05-10T07:46:54.362Z,46.54
2023-05-10T07:47:54.464Z,46.49
2023-05-10T07:48:54.484Z,46.43
2023-05-10T07:49:54.557Z,46.66
2023-05-10T07:50:54.570Z,47.16
2023-05-10T07:51:54.600Z,47.12
2023-05-10T07:52:54.599Z,46.49
2023-05-10T07:53:54.669Z,46.09
2023-05-10T07:54:54.721Z,45.94
2023-05-10T07:55:54.801Z,45.93
2023-05-10T07:56:54.808Z,46.08
2023-05-10T07:57:54.832Z,46.05
2023-05-10T07:58:54.882Z,46.18
2023-05-10T07:59:54.955Z,46.18
2023-05-10T08:00:54.998Z,46.31
2023-05-10T08:01:55.077Z,46.51
2023-05-10T08:02:55.129Z,46.57
2023-05-10T08:03:55.273Z,46.54
2023-05-10T08:04:55.195Z,46.45
2023-05-10T08:05:55.223Z,46.48
2023-05-10T08:06:55.289Z,46.44
2023-05-10T08:07:55.300Z,46.47
2023-05-10T08:08:55.338Z,46.42
2023-05-10T08:09:55.450Z,46.36
2023-05-10T08:10:55.635Z,46.48
2023-05-10T08:11:55.468Z,46.51
2023-05-10T08:12:55.567Z,46.39
2023-05-10T08:13:55.575Z,46.30
2023-05-10T08:14:55.600Z,46.29
2023-05-10T08:15:56.528Z,46.23
2023-05-10T08:16:55.723Z,46.14
2023-05-10T08:17:55.782Z,46.02
2023-05-10T08:18:55.848Z,45.92
2023-05-10T08:19:55.870Z,45.86
2023-05-10T08:20:55.927Z,45.73
2023-05-10T08:21:55.924Z,45.65
2023-05-10T08:22:55.943Z,45.47
2023-05-10T08:23:56.014Z,45.38
2023-05-10T08:24:56.054Z,45.31
2023-05-10T08:25:56.160Z,45.40
2023-05-10T08:26:56.154Z,45.59
2023-05-10T08:27:56.289Z,45.76
2023-05-10T08:28:56.293Z,45.77
2023-05-10T08:29:56.320Z,45.86
2023-05-10T08:30:56.715Z,45.86
2023-05-10T08:31:56.311Z,45.94
2023-05-10T08:32:56.315Z,45.87
2023-05-10T08:33:56.290Z,45.91
2023-05-10T08:34:56.302Z,46.01
2023-05-10T08:35:56.664Z,46.04
2023-05-10T08:36:56.323Z,46.21
2023-05-10T08:37:56.321Z,46.18
2023-05-10T08:38:56.309Z,46.20
2023-05-10T08:39:56.323Z,46.45
2023-05-10T08:40:56.346Z,46.41
2023-05-10T08:41:56.352Z,46.39
2023-05-10T08:42:56.348Z,46.50
2023-05-10T08:43:56.367Z,46.55
2023-05-10T08:44:56.315Z,46.73
2023-05-10T08:45:56.685Z,46.75
2023-05-10T08:46:56.325Z,46.85
2023-05-10T08:47:56.328Z,46.73
2023-05-10T08:48:56.318Z,46.75
2023-05-10T08:49:56.299Z,46.73
2023-05-10T08:50:56.713Z,46.74
2023-05-10T08:51:56.381Z,46.83
2023-05-10T08:52:56.263Z,46.76
2023-05-10T08:53:56.274Z,46.64
2023-05-10T08:54:56.321Z,46.50
2023-05-10T08:55:56.387Z,46.44
2023-05-10T08:56:56.493Z,46.31
2023-05-10T08:57:56.504Z,46.18
2023-05-10T08:58:56.567Z,46.01
2023-05-10T08:59:56.608Z,46.35
2023-05-10T09:00:57.210Z,46.13
2023-05-10T09:01:56.707Z,45.95
2023-05-10T09:02:56.779Z,45.89
2023-05-10T09:03:56.854Z,45.89
2023-05-10T09:04:56.970Z,45.83
2023-05-10T09:05:57.176Z,45.72
2023-05-10T09:06:56.952Z,45.66
2023-05-10T09:07:56.958Z,45.64
2023-05-10T09:08:57.036Z,45.62
2023-05-10T09:09:57.094Z,45.54
2023-05-10T09:10:57.164Z,45.55
2023-05-10T09:11:57.204Z,45.44
2023-05-10T09:12:59.214Z,45.39
2023-05-10T09:13:57.302Z,45.40
2023-05-10T09:14:57.325Z,45.32
2023-05-10T09:16:00.276Z,45.21
2023-05-10T09:16:57.438Z,44.79
2023-05-10T09:17:57.406Z,44.57
2023-05-10T09:18:57.425Z,44.44
2023-05-10T09:19:57.322Z,44.71
2023-05-10T09:20:57.356Z,44.76
2023-05-10T09:21:57.346Z,44.81
2023-05-10T09:22:57.331Z,44.81
2023-05-10T09:23:57.299Z,44.85
2023-05-10T09:24:57.306Z,44.84
2023-05-10T09:25:57.719Z,44.77
2023-05-10T09:26:57.257Z,44.68
2023-05-10T09:27:57.267Z,44.66
2023-05-10T09:28:57.305Z,44.85
2023-05-10T09:29:58.387Z,45.08
2023-05-10T09:30:57.719Z,45.00
2023-05-10T09:31:57.457Z,45.21
2023-05-10T09:32:57.512Z,44.95
2023-05-10T09:33:57.526Z,44.93
2023-05-10T09:34:57.569Z,44.31
2023-05-10T09:35:57.714Z,44.15
2023-05-10T09:36:57.651Z,44.47
2023-05-10T09:37:58.658Z,44.41
2023-05-10T09:38:57.715Z,44.17
2023-05-10T09:39:57.773Z,44.03
2023-05-10T09:40:58.234Z,43.94
2023-05-10T09:41:57.808Z,44.07
2023-05-10T09:42:58.308Z,44.20
2023-05-10T09:43:57.843Z,44.26
2023-05-10T09:44:57.864Z,44.17
2023-05-10T09:45:58.266Z,44.17
2023-05-10T09:46:57.955Z,44.18
2023-05-10T09:47:58.054Z,44.26
2023-05-10T09:48:58.037Z,44.26
2023-05-10T09:49:58.065Z,44.29
2023-05-10T09:50:58.718Z,44.22
2023-05-10T09:51:58.152Z,44.09
2023-05-10T09:52:58.203Z,44.20
2023-05-10T09:53:58.279Z,44.24
2023-05-10T09:54:58.268Z,44.29
2023-05-10T09:55:58.331Z,44.31
2023-05-10T09:56:58.333Z,44.43
2023-05-10T09:57:58.360Z,44.43
2023-05-10T09:58:58.432Z,44.46
2023-05-10T09:59:58.480Z,44.50
2023-05-10T10:00:58.692Z,44.47
2023-05-10T10:01:58.596Z,44.46
2023-05-10T10:02:58.667Z,44.48
2023-05-10T10:03:58.646Z,44.48
2023-05-10T10:04:58.694Z,44.46
2023-05-10T10:05:58.713Z,44.51
2023-05-10T10:06:58.730Z,44.49
2023-05-10T10:07:58.809Z,44.54
2023-05-10T10:08:58.839Z,44.57
2023-05-10T10:09:58.901Z,44.61
2023-05-10T10:10:59.217Z,44.60
2023-05-10T10:11:58.977Z,44.61
2023-05-10T10:12:58.974Z,44.57
2023-05-10T10:13:58.999Z,44.57
2023-05-10T10:14:59.053Z,44.56
2023-05-10T10:15:59.081Z,44.61
2023-05-10T10:17:08.101Z,44.56
2023-05-10T10:18:00.198Z,44.52
2023-05-10T10:18:59.198Z,44.56
2023-05-10T10:19:59.117Z,44.05
2023-05-10T10:20:59.117Z,44.08
2023-05-10T10:21:59.196Z,44.48
2023-05-10T10:22:59.134Z,45.29
2023-05-10T10:23:59.040Z,45.03
2023-05-10T10:24:59.068Z,44.83
2023-05-10T10:25:59.058Z,45.45
2023-05-10T10:26:59.230Z,45.53
2023-05-10T10:27:59.034Z,44.95
2023-05-10T10:28:59.055Z,44.71
2023-05-10T10:29:59.053Z,45.00
2023-05-10T10:30:59.011Z,45.01
2023-05-10T10:31:59.230Z,45.11
2023-05-10T10:32:59.062Z,45.10
2023-05-10T10:33:59.062Z,45.27
2023-05-10T10:34:58.997Z,45.57
2023-05-10T10:35:59.024Z,45.91
2023-05-10T10:36:59.196Z,45.93
2023-05-10T10:37:59.003Z,46.80
2023-05-10T10:38:59.306Z,46.82
2023-05-10T10:39:58.932Z,46.78
2023-05-10T10:40:58.980Z,47.60
2023-05-10T10:41:59.241Z,47.09
2023-05-10T10:42:58.994Z,45.74
2023-05-10T10:43:58.989Z,45.63
2023-05-10T10:44:59.447Z,46.17
2023-05-10T10:45:59.077Z,44.99
2023-05-10T10:46:59.236Z,45.17
2023-05-10T10:47:59.162Z,44.59
2023-05-10T10:48:59.184Z,45.80
2023-05-10T10:49:59.242Z,46.38
2023-05-10T10:50:59.252Z,46.07
2023-05-10T10:51:59.415Z,45.11
2023-05-10T10:52:59.367Z,45.99
2023-05-10T10:53:59.387Z,46.39
2023-05-10T10:54:59.313Z,46.58
2023-05-10T10:55:59.447Z,46.92
2023-05-10T10:56:59.746Z,47.08
2023-05-10T10:57:59.453Z,47.32
2023-05-10T10:58:59.494Z,47.42
2023-05-10T10:59:59.583Z,47.74
2023-05-10T11:00:59.566Z,47.78
2023-05-10T11:01:59.605Z,48.11
2023-05-10T11:02:59.632Z,47.72
2023-05-10T11:03:59.746Z,46.38
2023-05-10T11:04:59.722Z,46.61
2023-05-10T11:05:59.720Z,47.18
2023-05-10T11:06:59.718Z,47.57
2023-05-10T11:07:59.743Z,47.82
2023-05-10T11:08:59.731Z,48.10
2023-05-10T11:09:59.739Z,47.64
2023-05-10T11:10:59.774Z,47.90
2023-05-10T11:11:59.759Z,47.77
2023-05-10T11:12:59.751Z,46.92
2023-05-10T11:14:00.145Z,46.20
2023-05-10T11:14:59.805Z,45.53
2023-05-10T11:15:59.783Z,46.13
2023-05-10T11:16:59.843Z,47.03
2023-05-10T11:17:59.965Z,47.34
2023-05-10T11:19:00.058Z,47.45
2023-05-10T11:19:59.994Z,47.44
2023-05-10T11:21:00.030Z,48.08
2023-05-10T11:22:00.387Z,48.35
2023-05-10T11:23:00.621Z,47.38
2023-05-10T11:24:00.055Z,47.04
2023-05-10T11:25:00.088Z,48.06
2023-05-10T11:26:00.137Z,49.16
2023-05-10T11:27:00.109Z,49.45
2023-05-10T11:28:00.312Z,48.91
2023-05-10T11:29:00.233Z,49.56
2023-05-10T11:30:00.277Z,49.38
2023-05-10T11:31:00.348Z,49.92
2023-05-10T11:32:00.290Z,48.96
2023-05-10T11:33:00.813Z,48.30
2023-05-10T11:34:00.328Z,48.42
2023-05-10T11:35:00.331Z,48.18
2023-05-10T11:36:00.415Z,48.21
2023-05-10T11:37:00.437Z,47.94
2023-05-10T11:38:00.734Z,47.35
2023-05-10T11:39:00.564Z,47.01
2023-05-10T11:40:00.883Z,46.78
2023-05-10T11:41:00.663Z,46.75
2023-05-10T11:42:00.702Z,46.82
2023-05-10T11:43:00.776Z,45.62
2023-05-10T11:44:00.754Z,45.51
2023-05-10T11:45:00.807Z,46.02
2023-05-10T11:46:00.878Z,46.53
2023-05-10T11:47:00.915Z,46.02
2023-05-10T11:48:00.991Z,46.10
2023-05-10T11:49:00.976Z,46.14
2023-05-10T11:50:01.064Z,46.13
2023-05-10T11:51:00.990Z,46.28
2023-05-10T11:52:00.956Z,46.52
2023-05-10T11:53:01.051Z,46.20
2023-05-10T11:54:00.997Z,46.43
2023-05-10T11:55:01.029Z,46.23
2023-05-10T11:56:01.062Z,46.39
2023-05-10T11:57:01.004Z,46.88
2023-05-10T11:58:01.072Z,47.28
2023-05-10T11:59:01.049Z,46.79
2023-05-10T12:00:01.076Z,46.94
2023-05-10T12:01:01.110Z,47.03
2023-05-10T12:02:01.159Z,47.24
2023-05-10T12:03:01.304Z,47.23
2023-05-10T12:04:01.614Z,47.86
2023-05-10T12:05:01.437Z,48.36
2023-05-10T12:06:01.258Z,48.19
2023-05-10T12:07:01.316Z,48.27
2023-05-10T12:08:01.295Z,48.05
2023-05-10T12:09:01.334Z,48.07
2023-05-10T12:10:01.303Z,47.79
2023-05-10T12:11:01.407Z,47.61
2023-05-10T12:12:01.451Z,47.31
2023-05-10T12:13:01.494Z,47.20
2023-05-10T12:14:01.551Z,47.18
2023-05-10T12:15:01.571Z,47.06
2023-05-10T12:16:01.569Z,46.96
2023-05-10T12:17:01.650Z,46.73
2023-05-10T12:18:01.656Z,46.39
2023-05-10T12:19:01.779Z,46.51
2023-05-10T12:20:01.655Z,46.35
2023-05-10T12:21:01.689Z,46.50
2023-05-10T12:22:01.656Z,46.53
2023-05-10T12:23:01.660Z,46.58
2023-05-10T12:24:01.664Z,46.58
2023-05-10T12:25:01.665Z,45.85
2023-05-10T12:26:01.624Z,46.77
2023-05-10T12:27:01.691Z,47.01
2023-05-10T12:28:01.717Z,46.92
2023-05-10T12:29:01.690Z,47.29
2023-05-10T12:30:02.075Z,46.72
2023-05-10T12:31:01.723Z,47.64
2023-05-10T12:32:01.765Z,48.17
2023-05-10T12:33:01.937Z,49.66
2023-05-10T12:34:01.743Z,49.50
2023-05-10T12:35:01.781Z,49.27
2023-05-10T12:36:01.826Z,49.28
2023-05-10T12:37:01.826Z,48.96
2023-05-10T12:38:01.815Z,48.75
2023-05-10T12:39:01.822Z,48.31
2023-05-10T12:40:01.870Z,48.09
2023-05-10T12:41:01.867Z,47.72
2023-05-10T12:42:01.847Z,47.41
2023-05-10T12:43:01.920Z,47.55
2023-05-10T12:44:01.854Z,47.35
2023-05-10T12:45:01.843Z,47.24
2023-05-10T12:46:01.891Z,47.12
2023-05-10T12:47:01.875Z,47.12
2023-05-10T12:48:01.909Z,46.81
2023-05-10T12:49:09.150Z,46.99
2023-05-10T12:50:02.882Z,46.96
2023-05-10T12:51:01.834Z,46.81
2023-05-10T12:52:01.859Z,46.81
2023-05-10T12:53:01.867Z,46.54
2023-05-10T12:54:01.826Z,46.43
2023-05-10T12:55:01.816Z,46.51